Time;durP1;ratioP1;P1;durP2;ratioP2;P2;SDS_P1;SDS_P2;PMS_P1;PMS_P2;Temp;Humidity;BMP_temperature;BMP_pressure;BME280_temperature;BME280_humidity;BME280_pressure;Samples;Min_cycle;Max_cycle;Signal;HPM_P1;HPM_P2
2023/10/20 00:00:41;;;;;;;;;26.25;21.50;;;;;-143.90;100.00;73896.84;4995603;27;101520;-75
2023/10/20 00:03:08;;;;;;;;;37.00;30.25;;;;;-143.90;100.00;73907.16;4995711;28;103758;-77
2023/10/20 00:05:36;;;;;;;;;35.00;31.50;;;;;-143.90;100.00;73905.09;4984256;28;101824;-78
2023/10/20 00:08:03;;;;;;;;;39.25;32.25;;;;;-143.90;100.00;73907.16;4996706;28;103365;-78
2023/10/20 00:10:35;;;;;;;;;32.25;28.50;;;;;-143.90;100.00;73888.56;4997002;28;101959;-78
2023/10/20 00:13:02;;;;;;;;;24.75;21.50;;;;;-143.90;100.00;73888.56;4995514;27;101848;-79
2023/10/20 00:15:29;;;;;;;;;24.50;21.50;;;;;-143.90;100.00;73878.25;4994518;28;102009;-77
2023/10/20 00:17:56;;;;;;;;;24.75;20.25;;;;;-143.90;100.00;73878.25;4992692;27;103435;-77
2023/10/20 00:20:22;;;;;;;;;32.75;28.25;;;;;-143.90;100.00;73874.09;4992551;28;101931;-77
2023/10/20 00:22:49;;;;;;;;;25.00;24.00;;;;;-143.90;100.00;73874.09;4992875;28;103132;-77
2023/10/20 00:25:17;;;;;;;;;28.75;23.00;;;;;-143.90;100.00;73867.91;4974638;28;102207;-77
2023/10/20 00:27:45;;;;;;;;;31.50;26.75;;;;;-143.90;100.00;73861.69;4998219;27;103428;-77
2023/10/20 00:30:12;;;;;;;;;19.25;15.50;;;;;-143.90;100.00;73857.56;4991031;27;101666;-76
2023/10/20 00:32:41;;;;;;;;;10.50;3.75;;;;;-143.90;100.00;73849.31;4981747;28;103147;-77
2023/10/20 00:35:09;;;;;;;;;28.75;25.75;;;;;-143.90;100.00;73849.31;4975896;28;101960;-76
2023/10/20 00:37:36;;;;;;;;;27.50;22.25;;;;;-143.90;100.00;73843.09;4997525;27;103388;-76
2023/10/20 00:40:10;;;;;;;;;20.75;17.50;;;;;-143.90;100.00;73838.97;4993160;27;101547;-76
2023/10/20 00:42:38;;;;;;;;;20.25;16.50;;;;;-143.90;100.00;73845.16;4986323;27;101943;-76
2023/10/20 00:45:06;;;;;;;;;18.00;17.25;;;;;-143.90;100.00;73828.63;4995219;27;101649;-75
2023/10/20 00:47:35;;;;;;;;;26.25;22.75;;;;;-143.90;100.00;73828.63;4993130;27;103817;-76
2023/10/20 00:50:04;;;;;;;;;43.00;34.25;;;;;-143.90;100.00;73832.78;4989556;27;102463;-76
2023/10/20 00:52:35;;;;;;;;;44.00;38.25;;;;;-143.90;100.00;73828.63;4977516;28;101833;-76
2023/10/20 00:55:03;;;;;;;;;56.00;42.75;;;;;-143.90;100.00;73828.63;4992391;27;102053;-76
2023/10/20 00:57:32;;;;;;;;;45.00;38.75;;;;;-143.90;100.00;73816.25;4990616;28;108198;-76
2023/10/20 00:59:59;;;;;;;;;38.75;35.50;;;;;-143.90;100.00;73812.09;4987894;27;101737;-76
2023/10/20 01:02:25;;;;;;;;;56.75;42.00;;;;;-143.90;100.00;73816.25;4969600;27;103494;-76
2023/10/20 01:04:52;;;;;;;;;38.50;31.50;;;;;-143.90;100.00;73812.09;4992576;27;101926;-76
2023/10/20 01:07:19;;;;;;;;;43.50;35.50;;;;;-143.90;100.00;73807.97;4987865;28;103558;-76
2023/10/20 01:09:46;;;;;;;;;31.75;28.00;;;;;-143.90;100.00;73799.69;4989530;28;101569;-76
2023/10/20 01:12:12;;;;;;;;;28.75;27.25;;;;;-143.90;100.00;73805.91;4984668;28;101908;-76
2023/10/20 01:14:39;;;;;;;;;28.75;25.00;;;;;-143.90;100.00;73801.78;4994598;28;101791;-75
2023/10/20 01:17:05;;;;;;;;;27.50;26.50;;;;;-143.90;100.00;73801.78;4996102;27;107868;-76
2023/10/20 01:19:32;;;;;;;;;29.25;24.75;;;;;-143.90;100.00;73795.56;4992222;27;102079;-75
2023/10/20 01:21:59;;;;;;;;;25.50;21.25;;;;;-143.90;100.00;73791.44;4995480;28;101961;-76
2023/10/20 01:24:26;;;;;;;;;21.25;19.25;;;;;-143.90;100.00;73799.69;4993567;27;101942;-76
2023/10/20 01:26:53;;;;;;;;;26.00;18.75;;;;;-143.90;100.00;73793.50;4995428;27;103429;-76
2023/10/20 01:29:20;;;;;;;;;20.00;19.00;;;;;-143.90;100.00;73776.97;4995712;28;103249;-76
2023/10/20 01:31:46;;;;;;;;;16.25;13.50;;;;;-143.90;100.00;73772.84;4992125;28;101683;-75
2023/10/20 01:34:13;;;;;;;;;18.25;15.75;;;;;-143.90;100.00;73758.38;4997580;28;101867;-76
2023/10/20 01:36:40;;;;;;;;;20.00;18.75;;;;;-143.90;100.00;73760.44;4996203;27;103847;-75
2023/10/20 01:39:08;;;;;;;;;35.50;33.25;;;;;-143.90;100.00;73745.97;4998097;27;101836;-76
2023/10/20 01:41:34;;;;;;;;;27.00;23.00;;;;;-143.90;100.00;73739.78;4995491;27;103178;-76
2023/10/20 01:44:02;;;;;;;;;30.00;25.50;;;;;-143.90;100.00;73739.78;4994027;27;102432;-76
2023/10/20 01:46:28;;;;;;;;;23.25;16.50;;;;;-143.90;100.00;73739.78;4990304;28;103117;-75
2023/10/20 01:48:55;;;;;;;;;37.75;34.25;;;;;-143.90;100.00;73739.78;4993701;27;101698;-76
2023/10/20 01:51:22;;;;;;;;;39.25;35.00;;;;;-143.90;100.00;73735.63;4997432;27;102074;-77
2023/10/20 01:53:49;;;;;;;;;33.00;31.00;;;;;-143.90;100.00;73733.56;4993034;28;101557;-76
2023/10/20 01:56:15;;;;;;;;;28.75;27.00;;;;;-143.90;100.00;73735.63;4995632;28;103582;-76
2023/10/20 01:58:42;;;;;;;;;36.50;30.75;;;;;-143.90;100.00;73729.44;4992888;27;102409;-76
2023/10/20 02:01:09;;;;;;;;;28.25;26.75;;;;;-143.90;100.00;73721.16;4995581;28;101957;-76
2023/10/20 02:03:36;;;;;;;;;26.50;25.25;;;;;-143.90;100.00;73719.09;4994152;28;101572;-77
2023/10/20 02:06:04;;;;;;;;;34.00;30.50;;;;;-143.90;100.00;73708.78;4996420;27;103550;-75
2023/10/20 02:08:32;;;;;;;;;28.00;23.00;;;;;-143.90;100.00;73717.03;4995262;27;101782;-75
2023/10/20 02:10:59;;;;;;;;;26.50;24.75;;;;;-143.90;100.00;73712.91;4991256;27;102242;-75
2023/10/20 02:13:27;;;;;;;;;23.00;21.75;;;;;-143.90;100.00;73712.91;4999156;27;101674;-75
2023/10/20 02:15:53;;;;;;;;;30.50;25.25;;;;;-143.90;100.00;73717.03;4992052;28;103410;-75
2023/10/20 02:18:20;;;;;;;;;29.25;28.00;;;;;-143.90;100.00;73729.44;4962302;28;102222;-75
2023/10/20 02:21:03;;;;;;;;;45.50;35.00;;;;;-143.90;100.00;73741.84;4990073;28;101808;-76
2023/10/20 02:23:31;;;;;;;;;42.50;36.75;;;;;-143.90;100.00;73735.63;4994669;28;101678;-76
2023/10/20 02:26:02;;;;;;;;;29.00;27.50;;;;;-143.90;100.00;73741.84;4976689;28;102953;-76
2023/10/20 02:28:29;;;;;;;;;31.50;24.50;;;;;-143.90;100.00;73737.69;4971622;28;101781;-76
2023/10/20 02:30:59;;;;;;;;;35.50;30.25;;;;;-143.90;100.00;73745.97;4990350;28;101831;-76
2023/10/20 02:33:26;;;;;;;;;37.50;32.25;;;;;-143.90;100.00;73741.84;4975369;28;101874;-77
2023/10/20 02:35:54;;;;;;;;;26.75;22.25;;;;;-143.90;100.00;73731.50;4978353;28;103744;-76
2023/10/20 02:38:21;;;;;;;;;23.50;20.75;;;;;-143.90;100.00;73729.44;4994893;27;101866;-76
2023/10/20 02:40:51;;;;;;;;;20.75;19.75;;;;;-143.90;100.00;73731.50;4976068;28;103193;-75
2023/10/20 02:43:18;;;;;;;;;12.00;9.75;;;;;-143.90;100.00;73737.69;4994183;27;101573;-76
2023/10/20 02:45:53;;;;;;;;;25.50;21.50;;;;;-143.90;100.00;73748.03;4991429;28;103303;-76
2023/10/20 02:48:21;;;;;;;;;32.25;27.50;;;;;-143.90;100.00;73754.25;4995856;27;105800;-76
2023/10/20 02:50:47;;;;;;;;;17.50;15.00;;;;;-143.90;100.00;73758.38;4994036;28;102212;-76
2023/10/20 02:53:14;;;;;;;;;15.00;14.75;;;;;-143.90;100.00;73768.69;4995023;27;101675;-76
2023/10/20 02:55:42;;;;;;;;;25.75;23.25;;;;;-143.90;100.00;73752.16;4989253;28;103503;-75
2023/10/20 02:58:12;;;;;;;;;25.50;19.75;;;;;-143.90;100.00;73762.50;4995064;27;101820;-76
2023/10/20 03:00:43;;;;;;;;;23.75;19.25;;;;;-143.90;100.00;73762.50;4990870;27;101883;-75
2023/10/20 03:03:11;;;;;;;;;19.25;17.25;;;;;-143.90;100.00;73748.03;4978605;28;103454;-73
2023/10/20 03:05:45;;;;;;;;;16.00;15.25;;;;;-143.90;100.00;73752.16;4993341;28;103357;-77
2023/10/20 03:08:12;;;;;;;;;17.75;15.75;;;;;-143.90;100.00;73752.16;4992183;28;101618;-76
2023/10/20 03:10:39;;;;;;;;;16.25;14.25;;;;;-143.90;100.00;73743.91;4995623;28;101625;-76
2023/10/20 03:13:06;;;;;;;;;33.25;26.25;;;;;-143.90;100.00;73743.91;4978552;28;101664;-75
2023/10/20 03:15:33;;;;;;;;;28.00;25.25;;;;;-143.90;100.00;73733.56;4982974;28;103414;-76
2023/10/20 03:18:00;;;;;;;;;44.75;34.25;;;;;-143.90;100.00;73733.56;4994151;28;107676;-75
2023/10/20 03:20:30;;;;;;;;;35.25;33.75;;;;;-143.90;100.00;73727.38;4999054;28;101820;-77
2023/10/20 03:22:57;;;;;;;;;32.50;29.75;;;;;-143.90;100.00;73717.03;4995444;28;101512;-77
2023/10/20 03:25:24;;;;;;;;;22.75;20.50;;;;;-143.90;100.00;73700.50;4999262;28;103511;-76
2023/10/20 03:27:50;;;;;;;;;23.00;21.00;;;;;-143.90;100.00;73700.50;4994943;28;102155;-77
2023/10/20 03:30:17;;;;;;;;;31.75;24.75;;;;;-143.90;100.00;73696.38;4991832;27;101580;-76
2023/10/20 03:32:48;;;;;;;;;25.50;24.50;;;;;-143.90;100.00;73694.31;4976967;28;101765;-76
2023/10/20 03:35:16;;;;;;;;;25.50;25.00;;;;;-143.90;100.00;73690.16;4990781;27;103317;-76
2023/10/20 03:37:43;;;;;;;;;47.75;36.25;;;;;-143.90;100.00;73690.16;4989370;27;101876;-76
2023/10/20 03:40:13;;;;;;;;;39.00;32.25;;;;;-143.90;100.00;73681.91;4972948;28;102032;-77
2023/10/20 03:42:43;;;;;;;;;35.50;30.75;;;;;-143.90;100.00;73683.97;4992236;28;101965;-74
2023/10/20 03:45:10;;;;;;;;;33.00;29.25;;;;;-143.90;100.00;73679.84;4988369;28;103979;-77
2023/10/20 03:47:40;;;;;;;;;27.75;26.00;;;;;-143.90;100.00;73671.56;4991873;27;102219;-77
2023/10/20 03:50:14;;;;;;;;;39.50;35.00;;;;;-143.90;100.00;73673.63;4998313;27;101676;-77
2023/10/20 03:52:41;;;;;;;;;33.00;29.00;;;;;-143.90;100.00;73673.63;4981101;27;102031;-76
2023/10/20 03:55:13;;;;;;;;;26.00;22.75;;;;;-143.90;100.00;73659.16;4995345;28;103441;-77
2023/10/20 03:57:44;;;;;;;;;25.00;23.00;;;;;-143.90;100.00;73655.03;4995850;27;108321;-75
2023/10/20 04:00:21;;;;;;;;;21.50;18.50;;;;;-143.90;100.00;73655.03;4997703;27;102726;-75
2023/10/20 04:02:48;;;;;;;;;22.00;17.50;;;;;-143.90;100.00;73650.91;4991404;28;101715;-75
2023/10/20 04:05:16;;;;;;;;;18.25;17.25;;;;;-143.90;100.00;73648.84;4995126;28;103237;-75
2023/10/20 04:07:43;;;;;;;;;15.50;13.75;;;;;-143.90;100.00;73644.69;4992638;28;101651;-75
2023/10/20 04:10:09;;;;;;;;;16.00;14.50;;;;;-143.90;100.00;73642.63;5001000;27;101933;-76
2023/10/20 04:12:38;;;;;;;;;23.00;19.00;;;;;-143.90;100.00;73640.56;4977813;28;101959;-75
2023/10/20 04:15:08;;;;;;;;;27.25;20.75;;;;;-143.90;100.00;73634.38;4997649;27;103849;-75
2023/10/20 04:17:40;;;;;;;;;18.00;18.00;;;;;-143.90;100.00;73630.25;4996109;27;101726;-77
2023/10/20 04:20:15;;;;;;;;;21.75;19.00;;;;;-143.90;100.00;73634.38;4996880;28;101620;-76
2023/10/20 04:22:43;;;;;;;;;32.50;26.50;;;;;-143.90;100.00;73634.38;4996604;28;101978;-75
2023/10/20 04:25:12;;;;;;;;;37.75;33.25;;;;;-143.90;100.00;73638.50;4994592;27;103270;-76
2023/10/20 04:27:47;;;;;;;;;49.50;41.50;;;;;-143.90;100.00;73646.78;4994983;27;101554;-75
2023/10/20 04:52:28;;;;;;;;;17.75;16.75;;;;;-143.90;100.00;73605.44;4992659;28;101835;-76
2023/10/20 04:56:13;;;;;;;;;22.75;21.75;;;;;-143.90;100.00;73607.50;4997826;27;101830;-76
2023/10/20 04:58:04;;;;;;;;;18.25;16.50;;;;;-143.90;100.00;73599.25;4989861;27;107533;-76
2023/10/20 05:00:35;;;;;;;;;15.75;13.75;;;;;-143.90;100.00;73593.03;4995884;27;101849;-77
2023/10/20 05:05:43;;;;;;;;;17.00;15.50;;;;;-143.90;100.00;73593.03;5000927;28;101630;-77
2023/10/20 05:10:40;;;;;;;;;23.50;22.25;;;;;-143.90;100.00;73601.31;5001183;28;101606;-77
2023/10/20 05:13:09;;;;;;;;;25.50;20.25;;;;;-143.90;100.00;73595.09;4976259;28;101955;-76
2023/10/20 05:15:39;;;;;;;;;40.75;35.00;;;;;-143.90;100.00;73595.09;4969303;28;102772;-76
2023/10/20 05:18:11;;;;;;;;;23.00;19.00;;;;;-143.90;100.00;73590.97;4981416;28;108005;-76
2023/10/20 05:20:46;;;;;;;;;21.25;19.75;;;;;-143.90;100.00;73588.91;4978571;28;101756;-74
2023/10/20 05:23:14;;;;;;;;;34.50;32.25;;;;;-143.90;100.00;73595.09;4997219;27;101534;-75
2023/10/20 05:25:48;;;;;;;;;45.75;35.50;;;;;-143.90;100.00;73593.03;4992149;28;101952;-75
2023/10/20 05:28:16;;;;;;;;;31.50;28.75;;;;;-143.90;100.00;73593.03;4996787;27;103551;-76
2023/10/20 05:30:46;;;;;;;;;20.00;18.50;;;;;-143.90;100.00;73584.78;4987235;28;101910;-77
2023/10/20 05:33:15;;;;;;;;;25.00;22.75;;;;;-143.90;100.00;73582.72;4976400;28;101477;-77
2023/10/20 05:35:42;;;;;;;;;18.75;17.75;;;;;-143.90;100.00;73580.63;4994070;27;102832;-75
2023/10/20 05:38:09;;;;;;;;;21.00;20.00;;;;;-143.90;100.00;73584.78;4999056;28;103470;-77
2023/10/20 05:40:36;;;;;;;;;25.25;21.25;;;;;-143.90;100.00;73586.84;4996907;28;101621;-77
2023/10/20 05:43:05;;;;;;;;;19.25;14.50;;;;;-143.90;100.00;73566.16;4994468;28;101831;-77
2023/10/20 05:45:40;;;;;;;;;35.75;30.00;;;;;-143.90;100.00;73568.25;4996702;28;102261;-76
2023/10/20 05:48:08;;;;;;;;;32.50;28.25;;;;;-143.90;100.00;73572.38;4959402;28;107860;-76
2023/10/20 05:50:36;;;;;;;;;24.75;23.00;;;;;-143.90;100.00;73559.97;4998953;27;101670;-78
2023/10/20 05:53:03;;;;;;;;;21.25;17.50;;;;;-143.90;100.00;73551.72;4996578;28;101940;-77
2023/10/20 05:55:32;;;;;;;;;46.50;39.00;;;;;-143.90;100.00;73568.25;5001064;28;107955;-77
2023/10/20 05:57:59;;;;;;;;;35.00;29.00;;;;;-143.90;100.00;73564.09;4995414;28;103582;-77
2023/10/20 06:00:26;;;;;;;;;28.25;24.50;;;;;-143.90;100.00;73549.63;4995227;28;101827;-78
2023/10/20 06:02:52;;;;;;;;;37.75;34.00;;;;;-143.90;100.00;73541.38;4997929;27;101542;-77
2023/10/20 06:05:19;;;;;;;;;38.25;34.25;;;;;-143.90;100.00;73533.09;4996388;28;101771;-77
2023/10/20 06:07:48;;;;;;;;;31.25;26.75;;;;;-143.90;100.00;73526.91;4974548;28;103588;-77
2023/10/20 06:10:22;;;;;;;;;25.75;21.75;;;;;-143.90;100.00;73539.31;4990659;28;102019;-77
2023/10/20 06:12:53;;;;;;;;;28.50;27.75;;;;;-143.90;100.00;73543.44;4959995;28;102042;-77
2023/10/20 06:15:20;;;;;;;;;27.75;25.25;;;;;-143.90;100.00;73535.19;4952508;28;101818;-77
2023/10/20 06:17:51;;;;;;;;;29.00;28.00;;;;;-143.90;100.00;73520.72;4959169;28;103524;-77
2023/10/20 06:20:18;;;;;;;;;29.75;22.00;;;;;-143.90;100.00;73512.44;4955694;28;101552;-76
2023/10/20 06:22:46;;;;;;;;;33.75;31.00;;;;;-143.90;100.00;73506.25;4957949;28;101777;-76
2023/10/20 06:25:12;;;;;;;;;44.50;36.25;;;;;-143.90;100.00;73504.19;4958358;28;103001;-76
2023/10/20 06:27:43;;;;;;;;;42.00;34.25;;;;;-143.90;100.00;73489.72;4953291;28;103589;-77
2023/10/20 06:30:15;;;;;;;;;35.50;30.75;;;;;-143.90;100.00;73485.56;4959015;28;101804;-77
2023/10/20 06:32:44;;;;;;;;;40.75;33.50;;;;;-143.90;100.00;73487.66;4947337;28;101601;-76
2023/10/20 06:35:13;;;;;;;;;29.75;26.75;;;;;-143.90;100.00;73475.25;4955902;28;103008;-77
2023/10/20 06:40:15;;;;;;;;;26.00;23.50;;;;;-143.90;100.00;73456.66;4957571;28;101774;-79
2023/10/20 06:42:43;;;;;;;;;30.75;25.00;;;;;-143.90;100.00;73438.03;4953584;28;102570;-77
2023/10/20 06:45:13;;;;;;;;;54.00;40.75;;;;;-143.90;100.00;73427.72;4961966;28;101592;-78
2023/10/20 06:47:40;;;;;;;;;41.25;36.25;;;;;-143.90;100.00;73407.06;4955733;28;107993;-77
2023/10/20 06:50:10;;;;;;;;;31.50;26.75;;;;;-143.90;100.00;73394.66;4962982;28;102427;-77
2023/10/20 06:52:37;;;;;;;;;32.25;26.25;;;;;-143.90;100.00;73378.13;4964268;28;101977;-77
2023/10/20 06:55:04;;;;;;;;;47.50;39.25;;;;;-143.90;100.00;73376.06;4960387;28;101913;-79
2023/10/20 06:57:51;;;;;;;;;31.75;30.75;;;;;-143.90;100.00;73359.53;4957797;28;109131;-77
2023/10/20 07:00:17;;;;;;;;;37.75;34.25;;;;;-143.90;100.00;73363.66;4955084;28;101913;-76
2023/10/20 07:02:44;;;;;;;;;37.50;33.50;;;;;-143.90;100.00;73357.47;4961349;28;101502;-77
2023/10/20 07:05:11;;;;;;;;;28.00;24.25;;;;;-143.90;100.00;73345.06;4958402;28;101529;-75
2023/10/20 07:07:38;;;;;;;;;31.75;27.25;;;;;-143.90;100.00;73340.94;4953755;28;108960;-77
2023/10/20 07:10:05;;;;;;;;;30.00;26.50;;;;;-143.90;100.00;73324.41;4958509;28;101701;-77
2023/10/20 07:12:32;;;;;;;;;32.25;30.75;;;;;-143.90;100.00;73301.66;4992093;28;101691;-77
2023/10/20 07:14:59;;;;;;;;;39.00;33.25;;;;;-143.90;100.00;73287.19;4999519;27;101788;-77
2023/10/20 07:17:27;;;;;;;;;37.00;33.75;;;;;-143.90;100.00;73285.13;4987053;28;103531;-76
2023/10/20 07:19:54;;;;;;;;;33.00;28.75;;;;;-143.90;100.00;73258.25;4984354;28;101895;-76
2023/10/20 07:22:20;;;;;;;;;28.00;25.00;;;;;-143.90;100.00;73237.59;4992438;28;101994;-77
2023/10/20 07:24:51;;;;;;;;;14.75;13.00;;;;;-143.90;100.00;73221.06;5005083;28;103639;-77
2023/10/20 07:27:19;;;;;;;;;25.50;24.00;;;;;-143.90;100.00;73235.53;4996695;28;103741;-77
2023/10/20 07:29:45;;;;;;;;;25.00;24.25;;;;;-143.90;100.00;73221.06;4998158;28;101720;-77
2023/10/20 07:32:12;;;;;;;;;19.50;18.75;;;;;-143.90;100.00;73206.59;4997385;27;101886;-75
2023/10/20 07:34:39;;;;;;;;;18.75;18.00;;;;;-143.90;100.00;73194.22;5001757;27;102136;-76
2023/10/20 07:37:06;;;;;;;;;26.00;20.50;;;;;-143.90;100.00;73188.00;4983554;28;112279;-77
2023/10/20 07:39:34;;;;;;;;;18.00;16.00;;;;;-143.90;100.00;73165.28;4979281;28;101647;-78
2023/10/20 07:42:00;;;;;;;;;14.50;12.50;;;;;-143.90;100.00;73150.81;5002216;28;101757;-77
2023/10/20 07:44:27;;;;;;;;;16.50;14.50;;;;;-143.90;100.00;73138.41;4998073;28;101721;-77
2023/10/20 07:46:54;;;;;;;;;15.25;14.25;;;;;-143.90;100.00;73117.75;4984207;28;103373;-77
2023/10/20 07:49:21;;;;;;;;;17.00;12.50;;;;;-143.90;100.00;73109.50;4979342;28;101625;-76
2023/10/20 07:51:48;;;;;;;;;13.75;12.50;;;;;-143.90;100.00;73099.16;4980848;28;101739;-76
2023/10/20 07:54:14;;;;;;;;;18.25;15.25;;;;;-143.90;100.00;73103.28;5001050;27;103654;-74
2023/10/20 07:56:41;;;;;;;;;12.00;11.75;;;;;-143.90;100.00;73088.81;4996600;27;103368;-77
2023/10/20 07:59:08;;;;;;;;;13.00;11.00;;;;;-143.90;100.00;73078.50;5001722;27;101965;-77
2023/10/20 08:01:34;;;;;;;;;16.50;14.00;;;;;-143.90;100.00;73086.75;4976139;28;102029;-77
2023/10/20 08:04:02;;;;;;;;;13.00;13.00;;;;;-143.90;100.00;73080.56;5005963;27;102287;-77
2023/10/20 08:06:29;;;;;;;;;13.75;12.75;;;;;-143.90;100.00;73082.63;4995351;27;103408;-77
2023/10/20 08:08:56;;;;;;;;;25.00;23.75;;;;;-143.90;100.00;73095.03;5000478;27;101559;-77
2023/10/20 08:11:23;;;;;;;;;22.50;20.50;;;;;-143.90;100.00;73088.81;4979786;27;101915;-76
2023/10/20 08:13:51;;;;;;;;;21.00;17.75;;;;;-143.90;100.00;73088.81;4998968;27;101870;-77
2023/10/20 08:16:20;;;;;;;;;22.50;21.00;;;;;-143.90;100.00;73092.97;4999045;27;103435;-77
2023/10/20 08:18:48;;;;;;;;;20.50;17.25;;;;;-143.90;100.00;73084.69;4998735;27;101722;-77
2023/10/20 08:21:16;;;;;;;;;21.00;19.50;;;;;-143.90;100.00;73068.16;4999993;28;101702;-77
2023/10/20 08:23:43;;;;;;;;;26.50;18.00;;;;;-143.90;100.00;73068.16;4978661;28;102811;-77
2023/10/20 08:26:15;;;;;;;;;17.00;17.00;;;;;-143.90;100.00;73043.38;5002160;27;108185;-77
2023/10/20 08:28:42;;;;;;;;;15.00;13.00;;;;;-143.90;100.00;73026.84;4993725;28;101478;-78
2023/10/20 08:31:12;;;;;;;;;26.50;22.25;;;;;-143.90;100.00;73039.22;4999487;28;101634;-77
2023/10/20 08:33:39;;;;;;;;;20.25;20.00;;;;;-143.90;100.00;73022.69;4995406;28;102182;-77
2023/10/20 08:36:14;;;;;;;;;27.50;22.75;;;;;-143.90;100.00;73010.31;4999616;28;103339;-77
2023/10/20 08:38:43;;;;;;;;;23.50;18.25;;;;;-143.90;100.00;72997.91;4996130;28;102510;-78
2023/10/20 08:41:16;;;;;;;;;18.50;17.75;;;;;-143.90;100.00;72997.91;4998639;28;101636;-76
2023/10/20 08:43:44;;;;;;;;;18.00;16.75;;;;;-143.90;100.00;72985.50;4994257;27;101895;-79
2023/10/20 08:46:13;;;;;;;;;18.75;15.75;;;;;-143.90;100.00;72975.19;4979472;28;108009;-78
2023/10/20 08:48:44;;;;;;;;;17.50;16.50;;;;;-143.90;100.00;72971.03;5001376;27;102933;-77
2023/10/20 08:51:14;;;;;;;;;19.75;16.25;;;;;-143.90;100.00;72968.97;4992921;28;101672;-76
2023/10/20 08:53:44;;;;;;;;;15.50;14.75;;;;;-143.90;100.00;72964.84;5000722;28;101583;-77
2023/10/20 08:56:12;;;;;;;;;19.75;18.50;;;;;-143.90;100.00;72966.91;4994520;28;107927;-78
2023/10/20 08:58:40;;;;;;;;;24.50;21.50;;;;;-143.90;100.00;72975.19;4998939;28;102391;-78
2023/10/20 09:01:06;;;;;;;;;26.50;24.75;;;;;-143.90;100.00;72975.19;4994773;27;101500;-78
2023/10/20 09:03:41;;;;;;;;;17.00;16.25;;;;;-143.90;100.00;72960.72;4979382;27;101509;-78
2023/10/20 09:06:12;;;;;;;;;18.00;17.25;;;;;-143.90;100.00;72954.50;4992574;27;103396;-77
2023/10/20 09:08:38;;;;;;;;;25.50;23.00;;;;;-143.90;100.00;72960.72;4983919;28;101505;-77
2023/10/20 09:11:11;;;;;;;;;25.25;18.75;;;;;-143.90;100.00;72940.06;4991267;28;101787;-76
2023/10/20 09:13:40;;;;;;;;;15.25;13.50;;;;;-143.90;100.00;72925.59;4989999;27;102004;-77
2023/10/20 09:16:12;;;;;;;;;10.25;8.00;;;;;-143.90;100.00;72913.19;4998976;27;103684;-76
2023/10/20 09:18:51;;;;;;;;;20.50;17.50;;;;;-143.90;100.00;72917.31;4994010;27;101771;-77
2023/10/20 09:21:22;;;;;;;;;28.75;26.50;;;;;-143.90;100.00;72923.53;4996663;27;101951;-77
2023/10/20 09:24:00;;;;;;;;;31.25;27.75;;;;;-143.90;100.00;72911.13;4997436;27;102120;-77
2023/10/20 09:26:30;;;;;;;;;25.00;24.00;;;;;-143.90;100.00;72886.34;4994433;27;104844;-76
2023/10/20 09:28:57;;;;;;;;;25.75;21.50;;;;;-143.90;100.00;72869.81;4995395;27;104869;-77
2023/10/20 09:31:27;;;;;;;;;16.50;15.75;;;;;-143.90;100.00;72849.13;4994376;27;101595;-77
2023/10/20 09:33:54;;;;;;;;;20.00;18.50;;;;;-143.90;100.00;72832.59;5000455;27;101793;-77
2023/10/20 09:36:24;;;;;;;;;23.50;19.50;;;;;-143.90;100.00;72811.94;4972694;28;103319;-77
2023/10/20 09:38:56;;;;;;;;;17.75;17.00;;;;;-143.90;100.00;72787.16;5002213;27;101915;-78
2023/10/20 09:41:28;;;;;;;;;15.75;14.25;;;;;-143.90;100.00;72764.44;4992977;27;102248;-78
2023/10/20 09:44:05;;;;;;;;;17.75;16.00;;;;;-143.90;100.00;72768.56;5001820;27;101658;-77
2023/10/20 09:46:55;;;;;;;;;16.50;16.00;;;;;-143.90;100.00;72754.09;4989684;28;104507;-77
2023/10/20 09:49:25;;;;;;;;;19.50;19.00;;;;;-143.90;100.00;72745.84;4994302;27;101675;-77
2023/10/20 09:51:56;;;;;;;;;12.75;10.75;;;;;-143.90;100.00;72706.56;4994144;27;101903;-77
2023/10/20 09:54:31;;;;;;;;;16.25;13.25;;;;;-143.90;100.00;72690.03;4998065;27;102033;-77
2023/10/20 09:56:57;;;;;;;;;14.00;12.25;;;;;-143.90;100.00;72671.44;4994276;28;103650;-77
2023/10/20 09:59:27;;;;;;;;;9.25;9.00;;;;;-143.90;100.00;72650.78;4994393;27;101490;-77
2023/10/20 10:01:59;;;;;;;;;7.00;6.75;;;;;-143.90;100.00;72646.66;4978989;28;102103;-75
2023/10/20 10:04:31;;;;;;;;;14.50;13.00;;;;;-143.90;100.00;72654.91;4995728;28;101845;-77
2023/10/20 10:07:05;;;;;;;;;17.50;14.00;;;;;-143.90;100.00;72663.19;4999679;28;103821;-77
2023/10/20 10:09:43;;;;;;;;;13.25;11.00;;;;;-143.90;100.00;72659.06;4993962;28;101997;-76
2023/10/20 10:12:14;;;;;;;;;11.25;10.50;;;;;-143.90;100.00;72652.84;4997347;28;101860;-77
2023/10/20 10:14:41;;;;;;;;;12.00;10.00;;;;;-143.90;100.00;72628.06;4992291;28;102044;-77
2023/10/20 10:17:12;;;;;;;;;9.25;9.00;;;;;-143.90;100.00;72634.25;5000801;28;103418;-77
2023/10/20 10:19:50;;;;;;;;;10.75;10.75;;;;;-143.90;100.00;72650.78;4974504;28;102219;-77
2023/10/20 10:22:22;;;;;;;;;12.75;11.25;;;;;-143.90;100.00;72632.19;4993079;28;101993;-76
2023/10/20 10:24:56;;;;;;;;;7.75;7.75;;;;;-143.90;100.00;72623.94;4991745;28;102031;-76
2023/10/20 10:27:28;;;;;;;;;7.00;5.67;;;;;-143.90;100.00;72613.59;4973643;28;103482;-76
2023/10/20 10:30:05;;;;;;;;;6.00;6.00;;;;;-143.90;100.00;72592.94;4975568;28;101962;-77
2023/10/20 10:32:33;;;;;;;;;5.00;5.00;;;;;-143.90;100.00;72592.94;4990370;27;104576;-78
2023/10/20 10:35:03;;;;;;;;;5.00;5.00;;;;;-143.90;100.00;72601.19;4993686;27;101752;-76
2023/10/20 10:37:36;;;;;;;;;5.67;5.67;;;;;-143.90;100.00;72597.06;4975428;28;103025;-77
2023/10/20 10:40:15;;;;;;;;;8.00;6.67;;;;;-143.90;100.00;72597.06;4980575;28;101474;-77
2023/10/20 10:42:44;;;;;;;;;13.75;13.25;;;;;-143.90;100.00;72601.19;4995678;27;101597;-77
2023/10/20 10:45:24;;;;;;;;;12.33;10.67;;;;;-143.90;100.00;72609.47;4997624;28;101979;-76
2023/10/20 10:48:02;;;;;;;;;8.00;7.67;;;;;-143.90;100.00;72597.06;4989720;27;108199;-77
2023/10/20 10:50:30;;;;;;;;;11.75;11.25;;;;;-143.90;100.00;72588.81;4998151;27;101988;-76
2023/10/20 10:52:57;;;;;;;;;8.00;8.00;;;;;-143.90;99.84;72580.53;4996424;27;101521;-77
2023/10/20 10:55:24;;;;;;;;;9.00;9.00;;;;;-143.90;100.00;72568.16;4999740;27;101949;-76
2023/10/20 10:57:51;;;;;;;;;7.00;7.00;;;;;-143.90;99.35;72543.34;4998629;27;103717;-77
2023/10/20 11:00:19;;;;;;;;;10.00;7.00;;;;;-143.90;100.00;72537.16;4991590;27;101663;-77
2023/10/20 11:02:46;;;;;;;;;10.33;9.67;;;;;-143.90;100.00;72543.34;5001468;27;101502;-77
2023/10/20 11:05:14;;;;;;;;;11.33;9.33;;;;;-143.90;100.00;72547.50;4975375;28;101959;-77
2023/10/20 11:07:54;;;;;;;;;10.00;9.00;;;;;-143.90;100.00;72551.63;4998154;27;103565;-77
2023/10/20 11:10:21;;;;;;;;;12.33;11.33;;;;;-143.90;100.00;72582.59;4987215;28;101825;-78
2023/10/20 11:12:50;;;;;;;;;11.00;10.00;;;;;-143.90;100.00;72574.34;4998290;27;101853;-74
2023/10/20 11:15:16;;;;;;;;;14.75;12.75;;;;;-143.90;100.00;72572.28;4996010;27;101662;-76
2023/10/20 11:17:43;;;;;;;;;13.00;11.25;;;;;-143.90;100.00;72576.41;4995630;27;107925;-76
2023/10/20 11:20:10;;;;;;;;;8.33;8.33;;;;;-143.90;100.00;72564.00;4978295;28;102098;-77
2023/10/20 11:22:37;;;;;;;;;8.33;8.33;;;;;-143.90;100.00;72555.75;4996562;27;101561;-76
2023/10/20 11:25:05;;;;;;;;;12.67;11.00;;;;;-143.90;100.00;72568.16;5000475;27;101695;-77